• Join FlightAware (Why Join?)
  • Login
  • US Flag 
06:08AM EST


 

Airport Tracker/Info


-or-


 

Live Flight TrackerFlight Track Log ✈ SWA862 ✈ 11-Apr-2013 ✈ KBWI - KMHT

Flight Track Log - Related Links

Times and Time Zones

All times are in EDT time to prevent confusion due to time zone crossing. See the SWA862 flight status page for this flight to view local times or setup timezone preferences in your user account.

Time Position Orientation Groundspeed Altitude Reporting Facility
EDT Latitude Longitude Course Direction KTS MPH feet Rate Location/Type
10:29PM 39.1500 -76.6500 103° East 158 182 1,500  Level Potomac TRACON
10:31PM 39.1267 -76.5172 103° East 195 224 5,400 2,520 Climbing Washington Center
10:32PM 39.1336 -76.4131 85° East 246 283 9,000 3,060 Climbing Washington Center
10:33PM 39.1469 -76.2956 82° East 292 336 11,600 2,400 Climbing Washington Center
10:34PM 39.1600 -76.1511 83° East 349 402 13,900 2,580 Climbing Washington Center
10:35PM 39.1961 -76.0122 71° East 389 448 16,800 2,640 Climbing Washington Center
10:36PM 39.2756 -75.8919 50° Northeast 412 474 19,200 2,520 Climbing Washington Center
10:37PM 39.3614 -75.7686 48° Northeast 434 499 21,900 2,340 Climbing Washington Center
10:38PM 39.4489 -75.6400 49° Northeast 455 524 23,900 1,860 Climbing Washington Center
10:40PM 39.6319 -75.3669 49° Northeast 500 575 27,700 1,920 Climbing New York Center
10:41PM 39.7228 -75.2297 49° Northeast 500 575 29,800 1,740 Climbing New York Center
10:42PM 39.8136 -75.0867 50° Northeast 507 583 31,300 1,860 Climbing New York Center
10:43PM 39.9061 -74.9464 49° Northeast 507 583 33,600 2,160 Climbing New York Center
10:44PM 40.0031 -74.7978 50° Northeast 502 578 35,600 1,440 Climbing New York Center
10:45PM 40.0822 -74.6803 49° Northeast 489 563 36,600 660 Climbing New York Center
10:46PM 40.1831 -74.5256 50° Northeast 489 563 37,000 180 Climbing New York Center
10:47PM 40.2908 -74.4117 39° Northeast 489 563 37,000  Level New York Center
10:49PM 40.5442 -74.3436 12° North 459 528 37,000  Level Boston Center
10:50PM 40.6739 -74.3144 10° North 459 528 37,000  Level Boston Center
10:51PM 40.8161 -74.2858 North 465 535 37,000  Level Boston Center
10:52PM 40.9436 -74.2536 11° North 465 535 37,000  Level Boston Center
10:53PM 41.0692 -74.2242 10° North 465 535 37,000  Level Boston Center
10:54PM 41.1947 -74.1944 10° North 459 528 37,000  Level Boston Center
10:55PM 41.3056 -74.1617 13° North 459 528 37,000  Level Boston Center
10:56PM 41.4333 -74.1319 10° North 459 528 37,000 -600 Level Boston Center
10:57PM 41.5711 -74.1022 North 454 522 35,900 -1,380 Descending Boston Center
10:58PM 41.6911 -74.0303 24° Northeast 454 522 34,200 -1,920 Descending Boston Center
10:59PM 41.7825 -73.8850 50° Northeast 466 536 32,200 -2,100 Descending Boston Center
11:00PM 41.8697 -73.7475 50° Northeast 471 542 30,100 -2,100 Descending Boston Center
11:01PM 41.9589 -73.6097 49° Northeast 477 549 28,000 -2,160 Descending Boston Center
11:02PM 42.0456 -73.4744 49° Northeast 482 555 25,800 -2,100 Descending Boston Center
11:03PM 42.1322 -73.3417 49° Northeast 482 555 24,000 -900 Descending Boston Center
11:04PM 42.2144 -73.2136 49° Northeast 459 528 24,000 -300 Level Boston Center
11:05PM 42.2964 -73.0828 50° Northeast 454 522 23,500 -840 Descending Boston Center
11:06PM 42.3825 -72.9489 49° Northeast 460 529 22,400 -1,500 Descending Boston Center
11:07PM 42.4622 -72.8200 50° Northeast 460 529 20,600 -1,380 Descending Boston Center
11:08PM 42.5356 -72.7022 50° Northeast 434 499 19,700 -1,140 Descending Boston Center
11:09PM 42.5961 -72.6092 49° Northeast 390 449 18,400 -1,560 Descending Boston Center
11:10PM 42.6631 -72.5050 49° Northeast 369 425 16,700 -1,620 Descending Boston Center
11:11PM 42.7275 -72.4006 50° Northeast 358 412 15,100 -1,560 Descending Boston Center
11:12PM 42.7881 -72.2986 51° Northeast 358 412 13,600 -1,740 Descending Boston Center
11:13PM 42.8044 -72.1600 81° East 329 379 11,700 -1,740 Descending Boston Center
11:14PM 42.8125 -72.0439 85° East 334 384 10,100 -1,860 Descending Boston Center
11:15PM 42.8222 -71.9108 84° East 329 379 8,000 -1,680 Descending Boston Center
11:16PM 42.8031 -71.8092 104° East 310 357 6,800 -1,380 Descending Boston Center
11:17PM 42.7711 -71.7019 112° Southeast 286 329 5,300 -1,560 Descending Boston Center
11:18PM 42.7831 -71.6253 78° East 238 274 3,800 -1,020 Descending Boston Center
11:19PM 42.8367 -71.5653 39° Northeast 205 236 3,300 -720 Descending Boston Center
11:20PM 42.8636 -71.5308 43° Northeast 176 203 2,400 -1,080 Descending Boston Center
11:21PM 42.8925 -71.4936 43° Northeast 138 159 1,200 -900 Descending Boston Center
11:22PM 42.9172 -71.4647 41° Northeast 130 150 600 -480 Descending Boston Center
11:23PM 42.9439 -71.4275 46° Northeast 130 150 300 4,080 Descending Boston Center
11:24PM 42.9686 -71.3931 46° Northeast 130 150 9,000 4,260 Climbing Boston Center
11:25PM 42.9956 -71.3558 45° Northeast 130 150 9,000  Level Boston Center
11:26PM 43.0200 -71.3211 46° Northeast 130 150 9,000  Level Boston Center
11:28PM 42.9328 -71.4358 221° Southwest  Level Estimated
11:35PM 42.9328 -71.4358 221° Southwest  Level Estimated
11:36PM 42.9328 -71.4358 221° Southwest  Level Estimated
11:37PM 42.9328 -71.4358 221° Southwest  Level Estimated
11:38PM 42.9328 -71.4358 221° Southwest  Level Estimated
11:39PM 42.9328 -71.4358 221° Southwest  Level Estimated
11:40PM 42.9328 -71.4358 221° Southwest  Level Estimated
11:41PM 42.9328 -71.4358 221° Southwest  Level Estimated